Time;durP1;ratioP1;P1;durP2;ratioP2;P2;SDS_P1;SDS_P2;PMS_P1;PMS_P2;Temp;Humidity;BMP_temperature;BMP_pressure;BME280_temperature;BME280_humidity;BME280_pressure;Samples;Min_cycle;Max_cycle;Signal;HPM_P1;HPM_P2
2023/12/16 00:00:11;;;;;;;20.25;9.93;;;;;;;7.51;100.00;102087.75;12217061;19;20058;-83
2023/12/16 00:04:13;;;;;;;17.70;9.73;;;;;;;7.50;100.00;102097.88;12246795;19;20006;-83
2023/12/16 00:08:16;;;;;;;18.40;8.68;;;;;;;7.53;100.00;102105.75;12234657;19;20014;-84
2023/12/16 00:12:18;;;;;;;18.27;9.45;;;;;;;7.57;100.00;102114.50;12232934;19;20354;-83
2023/12/16 00:16:20;;;;;;;20.63;9.68;;;;;;;7.58;100.00;102127.19;12237232;19;20074;-83
2023/12/16 00:20:22;;;;;;;21.00;10.05;;;;;;;7.54;100.00;102121.19;12215800;19;20016;-83
2023/12/16 00:24:24;;;;;;;23.17;10.80;;;;;;;7.51;100.00;102112.44;12236815;19;19998;-83
2023/12/16 00:28:25;;;;;;;20.77;10.35;;;;;;;7.49;100.00;102118.09;12233513;19;20342;-83
2023/12/16 00:32:27;;;;;;;24.88;10.27;;;;;;;7.51;100.00;102123.44;12208981;19;20006;-84
2023/12/16 00:36:29;;;;;;;20.20;9.73;;;;;;;7.51;100.00;102131.66;12234108;19;20117;-84
2023/12/16 00:40:31;;;;;;;21.00;10.73;;;;;;;7.49;100.00;102139.19;12230108;19;20073;-83
2023/12/16 00:44:33;;;;;;;19.13;10.20;;;;;;;7.49;100.00;102134.56;12209709;19;20017;-81
2023/12/16 00:48:35;;;;;;;19.70;9.98;;;;;;;7.45;100.00;102138.69;12231520;19;20007;-84
2023/12/16 00:52:37;;;;;;;20.42;9.07;;;;;;;7.48;100.00;102135.59;12226162;19;20014;-84
2023/12/16 00:56:39;;;;;;;21.17;9.40;;;;;;;7.51;100.00;102137.16;12204578;19;20038;-84
2023/12/16 01:00:42;;;;;;;17.40;8.82;;;;;;;7.52;100.00;102138.84;12225178;19;20007;-86
2023/12/16 01:04:44;;;;;;;24.67;10.07;;;;;;;7.50;100.00;102129.97;12225624;19;20479;-85
2023/12/16 01:08:46;;;;;;;22.38;10.52;;;;;;;7.50;100.00;102141.78;12199721;19;20092;-84
2023/12/16 01:12:47;;;;;;;22.60;8.95;;;;;;;7.51;100.00;102137.16;12212576;19;20007;-84
2023/12/16 01:16:49;;;;;;;22.40;10.70;;;;;;;7.51;100.00;102137.16;12212892;19;20010;-85
2023/12/16 01:20:51;;;;;;;23.17;10.40;;;;;;;7.51;100.00;102135.25;12196020;19;20017;-84
2023/12/16 01:24:53;;;;;;;19.58;9.68;;;;;;;7.50;100.00;102129.97;12222161;19;20490;-86
2023/12/16 01:28:55;;;;;;;22.75;9.40;;;;;;;7.51;100.00;102138.00;12198124;19;20018;-84
2023/12/16 01:32:56;;;;;;;19.40;9.75;;;;;;;7.50;100.00;102147.25;12221577;19;20014;-84
2023/12/16 01:36:58;;;;;;;16.92;9.15;;;;;;;7.49;100.00;102147.44;12216732;19;20015;-85
2023/12/16 01:41:00;;;;;;;17.20;9.10;;;;;;;7.48;100.00;102151.22;12193600;19;20019;-83
2023/12/16 01:45:04;;;;;;;19.88;9.88;;;;;;;7.47;100.00;102149.50;12220852;19;20034;-84
2023/12/16 01:49:05;;;;;;;23.33;10.45;;;;;;;7.49;100.00;102144.69;12217852;19;20022;-84
2023/12/16 01:53:08;;;;;;;22.38;9.38;;;;;;;7.50;100.00;102141.78;12199883;19;20013;-84
2023/12/16 01:57:10;;;;;;;17.47;9.50;;;;;;;7.50;100.00;102143.66;12218833;19;20099;-84
2023/12/16 02:01:12;;;;;;;16.50;8.70;;;;;;;7.50;100.00;102157.38;12220521;19;20014;-83
2023/12/16 02:05:14;;;;;;;19.90;9.70;;;;;;;7.49;100.00;102150.16;12199773;19;20215;-83
2023/12/16 02:09:18;;;;;;;17.27;9.15;;;;;;;7.46;100.00;102145.03;12221204;19;20278;-82
2023/12/16 02:13:22;;;;;;;19.42;11.20;;;;;;;7.45;100.00;102152.41;12220056;19;20010;-82
2023/12/16 02:17:24;;;;;;;23.90;10.20;;;;;;;7.44;100.00;102158.06;12199305;19;20079;-83
2023/12/16 02:21:26;;;;;;;23.23;10.18;;;;;;;7.44;100.00;102163.56;12222576;19;20011;-83
2023/12/16 02:25:28;;;;;;;19.80;10.02;;;;;;;7.41;100.00;102161.16;12249730;19;20047;-84
2023/12/16 02:29:30;;;;;;;18.58;10.50;;;;;;;7.40;100.00;102154.78;12219049;19;20821;-82
2023/12/16 02:33:32;;;;;;;19.63;9.13;;;;;;;7.40;100.00;102173.16;12232538;19;20050;-86
2023/12/16 02:37:34;;;;;;;19.43;8.93;;;;;;;7.41;100.00;102180.38;12229738;19;20010;-85
2023/12/16 02:41:36;;;;;;;21.73;9.87;;;;;;;7.40;100.00;102174.00;12205169;19;20013;-84
2023/12/16 02:45:37;;;;;;;18.77;9.60;;;;;;;7.38;100.00;102172.47;12226790;19;20009;-85
2023/12/16 02:49:40;;;;;;;19.23;9.80;;;;;;;7.37;100.00;102168.84;12225862;19;20392;-84
2023/12/16 02:53:42;;;;;;;20.63;9.48;;;;;;;7.35;100.00;102164.56;12203013;19;20072;-84
2023/12/16 02:57:44;;;;;;;20.00;8.60;;;;;;;7.33;100.00;102172.13;12222541;19;20006;-85
2023/12/16 03:01:46;;;;;;;20.43;10.03;;;;;;;7.27;100.00;102166.28;12230118;19;20002;-84
2023/12/16 03:05:48;;;;;;;19.33;9.17;;;;;;;7.25;100.00;102167.47;12203929;19;20264;-83
2023/12/16 03:09:50;;;;;;;13.27;6.22;;;;;;;7.23;100.00;102161.34;12238864;19;20011;-84
2023/12/16 03:13:51;;;;;;;22.05;9.75;;;;;;;7.18;100.00;102164.56;12230800;19;20003;-84
2023/12/16 03:17:53;;;;;;;18.15;9.10;;;;;;;7.12;100.00;102165.25;12244473;19;20014;-85
2023/12/16 03:21:55;;;;;;;18.90;9.50;;;;;;;7.08;100.00;102158.41;12248308;19;20352;-84
2023/12/16 03:25:57;;;;;;;20.58;9.48;;;;;;;7.07;100.00;102153.94;12231758;19;21825;-85
2023/12/16 03:29:59;;;;;;;24.17;10.75;;;;;;;7.05;100.00;102158.75;12234514;19;20011;-85
2023/12/16 03:34:00;;;;;;;23.38;10.55;;;;;;;7.01;100.00;102157.34;12227248;19;20006;-85
2023/12/16 03:38:02;;;;;;;22.80;11.43;;;;;;;6.96;100.00;102151.50;12195470;19;20032;-85
2023/12/16 03:42:04;;;;;;;26.65;11.55;;;;;;;6.95;100.00;102153.41;12226384;19;20011;-82
2023/12/16 03:46:07;;;;;;;21.60;10.93;;;;;;;6.95;100.00;102158.88;12226434;19;20018;-85
2023/12/16 03:50:10;;;;;;;27.20;10.65;;;;;;;6.97;100.00;102153.25;12206047;19;20018;-84
2023/12/16 03:54:11;;;;;;;27.73;10.63;;;;;;;6.98;100.00;102153.06;12227407;19;20011;-84
2023/12/16 03:58:13;;;;;;;26.05;11.52;;;;;;;7.01;100.00;102154.59;12228517;19;20003;-84
2023/12/16 04:02:16;;;;;;;22.17;10.85;;;;;;;7.02;100.00;102153.56;12208395;19;20022;-84
2023/12/16 04:06:18;;;;;;;20.77;9.95;;;;;;;7.04;100.00;102148.78;12229328;19;20017;-84
2023/12/16 04:10:20;;;;;;;25.02;11.40;;;;;;;7.04;100.00;102151.53;12224187;19;20104;-85
2023/12/16 04:14:22;;;;;;;25.17;9.93;;;;;;;7.07;100.00;102156.66;12206121;19;20007;-84
2023/12/16 04:18:23;;;;;;;27.33;10.05;;;;;;;7.10;100.00;102160.97;12227426;19;20028;-84
2023/12/16 04:22:25;;;;;;;22.63;9.20;;;;;;;7.09;100.00;102160.09;12227604;19;20094;-84
2023/12/16 04:26:27;;;;;;;22.38;9.93;;;;;;;7.11;100.00;102146.22;12208049;19;20375;-85
2023/12/16 04:30:29;;;;;;;23.17;10.17;;;;;;;7.09;100.00;102154.63;12226106;19;20014;-84
2023/12/16 04:34:31;;;;;;;22.58;10.20;;;;;;;7.08;100.00;102159.25;12229503;19;20014;-84
2023/12/16 04:38:35;;;;;;;19.92;8.85;;;;;;;7.11;100.00;102157.19;12205076;19;20050;-84
2023/12/16 04:42:40;;;;;;;19.40;9.50;;;;;;;7.11;100.00;102160.81;12229389;19;20010;-83
2023/12/16 04:46:42;;;;;;;23.05;9.57;;;;;;;7.13;100.00;102171.59;12233018;19;20430;-84
2023/12/16 04:50:44;;;;;;;21.08;9.02;;;;;;;7.15;100.00;102164.06;12213520;19;20014;-83
2023/12/16 04:54:46;;;;;;;19.48;8.98;;;;;;;7.10;100.00;102161.81;12238143;19;20006;-84
2023/12/16 04:58:48;;;;;;;19.75;9.00;;;;;;;7.09;100.00;102160.09;12246189;19;20010;-83
2023/12/16 05:02:50;;;;;;;20.55;8.50;;;;;;;7.10;100.00;102163.69;12251267;19;19998;-83
2023/12/16 05:06:55;;;;;;;16.50;8.02;;;;;;;7.07;100.00;102156.66;12265897;19;20112;-84
2023/12/16 05:10:57;;;;;;;23.17;9.35;;;;;;;7.07;100.00;102171.22;12227532;19;20010;-84
2023/12/16 05:14:58;;;;;;;15.73;8.25;;;;;;;7.11;100.00;102174.50;12239655;19;20009;-85
2023/12/16 05:19:03;;;;;;;16.90;8.00;;;;;;;7.12;100.00;102178.13;12234275;19;20018;-84
2023/12/16 05:23:05;;;;;;;21.17;9.30;;;;;;;7.08;100.00;102174.84;12191190;19;20010;-83
2023/12/16 05:27:07;;;;;;;24.13;10.05;;;;;;;7.06;100.00;102171.41;12214413;19;20012;-82
2023/12/16 05:31:09;;;;;;;21.63;9.70;;;;;;;7.04;100.00;102170.72;12212773;19;20021;-83
2023/12/16 05:35:11;;;;;;;15.23;8.55;;;;;;;7.04;100.00;102176.19;12187946;19;19996;-83
2023/12/16 05:39:13;;;;;;;23.33;10.13;;;;;;;7.03;100.00;102185.47;12212545;19;20170;-83
2023/12/16 05:43:15;;;;;;;19.92;9.68;;;;;;;7.07;100.00;102198.66;12211472;19;20006;-83
2023/12/16 05:47:17;;;;;;;21.15;10.05;;;;;;;7.11;100.00;102206.53;12189242;19;20007;-84
2023/12/16 05:51:19;;;;;;;21.93;9.43;;;;;;;7.14;100.00;102201.59;12211725;19;20014;-85
2023/12/16 05:55:20;;;;;;;19.85;9.60;;;;;;;7.17;100.00;102193.03;12211550;19;20006;-83
2023/12/16 05:59:22;;;;;;;20.20;9.38;;;;;;;7.18;100.00;102196.63;12187174;19;20122;-82
2023/12/16 06:03:24;;;;;;;20.13;9.15;;;;;;;7.20;100.00;102197.31;12210710;19;20007;-82
2023/12/16 06:07:26;;;;;;;22.90;9.35;;;;;;;7.17;100.00;102205.84;12210932;19;19998;-82
2023/12/16 06:11:28;;;;;;;22.02;9.93;;;;;;;7.09;100.00;102206.72;12187484;19;20034;-83
2023/12/16 06:15:30;;;;;;;25.42;10.27;;;;;;;7.10;100.00;102210.31;12206911;19;20010;-84
2023/12/16 06:19:32;;;;;;;20.57;9.50;;;;;;;7.10;100.00;102207.56;12210578;19;20039;-83
2023/12/16 06:23:34;;;;;;;22.77;10.67;;;;;;;7.03;100.00;102199.16;12187849;19;20006;-82
2023/12/16 06:27:37;;;;;;;21.27;9.20;;;;;;;7.03;100.00;102210.13;12211467;19;20007;-84
2023/12/16 06:31:39;;;;;;;;;;;;;;;7.02;100.00;102202.91;12210277;19;20259;-82
2023/12/16 06:35:41;;;;;;;23.00;10.30;;;;;;;7.02;100.00;102214.75;12193353;19;19915;-83
2023/12/16 06:39:42;;;;;;;22.48;10.32;;;;;;;7.00;100.00;102219.53;12217187;19;20021;-83
2023/12/16 06:43:45;;;;;;;23.85;10.77;;;;;;;6.98;100.00;102213.38;12233247;19;20060;-83
2023/12/16 06:47:46;;;;;;;19.83;9.45;;;;;;;7.01;100.00;102218.50;12226659;19;20370;-81
2023/12/16 06:51:48;;;;;;;26.00;10.20;;;;;;;7.00;100.00;102219.53;12212343;19;20014;-81
2023/12/16 06:55:51;;;;;;;22.00;9.90;;;;;;;6.98;100.00;102227.06;12219884;19;20003;-81
2023/12/16 06:59:54;;;;;;;24.77;10.00;;;;;;;6.96;100.00;102226.41;12192860;19;20007;-81
2023/12/16 07:03:57;;;;;;;25.65;11.10;;;;;;;6.95;100.00;102227.41;12211028;19;20007;-80
2023/12/16 07:07:58;;;;;;;21.80;9.45;;;;;;;6.94;100.00;102235.81;12189148;19;20014;-81
2023/12/16 07:12:00;;;;;;;19.88;10.60;;;;;;;6.97;100.00;102251.94;12202809;19;20010;-80
2023/12/16 07:16:04;;;;;;;23.98;9.82;;;;;;;6.98;100.00;102248.16;12208946;19;20007;-79
2023/12/16 07:20:08;;;;;;;23.42;9.82;;;;;;;7.00;100.00;102259.81;12184297;19;20592;-80
2023/12/16 07:24:09;;;;;;;20.95;9.35;;;;;;;6.99;100.00;102258.97;12206253;19;20007;-80
2023/12/16 07:28:11;;;;;;;22.00;9.00;;;;;;;7.00;100.00;102255.19;12204986;19;20017;-80
2023/12/16 07:32:13;;;;;;;21.60;9.43;;;;;;;7.05;100.00;102262.94;12180451;19;20044;-82
2023/12/16 07:36:15;;;;;;;20.70;8.02;;;;;;;7.07;100.00;102266.34;12207766;19;20007;-82
2023/12/16 07:40:18;;;;;;;19.17;9.13;;;;;;;7.08;100.00;102266.19;12202805;19;20024;-81
2023/12/16 07:44:20;;;;;;;21.25;9.50;;;;;;;7.12;100.00;102268.59;12172898;19;20504;-81
2023/12/16 07:48:24;;;;;;;23.02;9.95;;;;;;;7.13;100.00;102273.88;12186648;19;20352;-81
2023/12/16 07:52:27;;;;;;;19.10;8.50;;;;;;;7.15;100.00;102274.59;12187292;19;20002;-81
2023/12/16 07:56:29;;;;;;;;;;;;;;;7.20;100.00;102269.47;12180519;19;20042;-82
2023/12/16 08:00:31;;;;;;;21.52;8.88;;;;;;;7.23;100.00;102273.78;12201144;19;20547;-82
2023/12/16 08:04:33;;;;;;;20.02;8.63;;;;;;;7.26;100.00;102266.06;12202569;19;20122;-82
2023/12/16 08:08:38;;;;;;;19.55;8.80;;;;;;;7.29;100.00;102276.69;12183234;19;20014;-81
2023/12/16 08:12:40;;;;;;;16.42;8.40;;;;;;;7.33;100.00;102270.88;12202309;19;20023;-82
2023/12/16 08:16:42;;;;;;;18.13;8.77;;;;;;;7.39;100.00;102275.69;12205515;19;20022;-83
2023/12/16 08:20:44;;;;;;;21.65;8.60;;;;;;;7.43;100.00;102277.03;12178854;19;19999;-81
2023/12/16 08:24:45;;;;;;;20.70;8.38;;;;;;;7.46;100.00;102287.69;12214064;19;20015;-82
2023/12/16 08:28:48;;;;;;;16.95;7.60;;;;;;;7.52;100.00;102293.38;12213950;19;20015;-82
2023/12/16 08:32:53;;;;;;;20.40;8.00;;;;;;;7.61;100.00;102309.81;12193139;19;20371;-80
2023/12/16 08:36:56;;;;;;;;;;;;;;;7.67;100.00;102311.88;12214671;19;20426;-83
2023/12/16 08:40:58;;;;;;;18.95;7.70;;;;;;;7.77;100.00;102304.38;12193099;19;19918;-81
2023/12/16 08:44:59;;;;;;;20.17;8.27;;;;;;;7.83;100.00;102308.31;12212437;19;20018;-80
2023/12/16 08:49:01;;;;;;;19.02;8.27;;;;;;;7.89;100.00;102313.13;12212873;19;20066;-81
2023/12/16 08:53:07;;;;;;;16.73;8.23;;;;;;;7.92;100.00;102312.78;12192127;19;20021;-81
2023/12/16 08:57:09;;;;;;;20.63;8.13;;;;;;;7.87;100.00;102317.91;12221828;19;20022;-83
2023/12/16 09:01:11;;;;;;;15.82;8.43;;;;;;;7.90;100.00;102323.06;12219585;19;20006;-83
2023/12/16 09:05:13;;;;;;;16.92;7.10;;;;;;;8.05;100.00;102337.81;12195067;19;20018;-82
2023/12/16 09:09:14;;;;;;;14.40;7.25;;;;;;;8.13;100.00;102337.84;12220379;19;20317;-83
2023/12/16 09:13:16;;;;;;;14.10;7.45;;;;;;;8.20;100.00;102341.59;12218512;19;20006;-84
2023/12/16 09:17:18;;;;;;;13.98;7.00;;;;;;;8.29;100.00;102347.94;12198232;19;20024;-83
2023/12/16 09:21:20;;;;;;;19.63;8.57;;;;;;;8.32;100.00;102355.84;12219292;19;20387;-82
2023/12/16 09:25:22;;;;;;;14.73;7.30;;;;;;;8.32;100.00;102354.97;12217069;19;20017;-83
2023/12/16 09:29:24;;;;;;;16.88;7.47;;;;;;;8.31;100.00;102356.03;12200990;19;20366;-82
2023/12/16 09:33:29;;;;;;;16.27;7.55;;;;;;;8.31;100.00;102353.28;12219118;19;20003;-85
2023/12/16 09:37:30;;;;;;;16.17;7.35;;;;;;;8.36;100.00;102356.38;12225962;19;20014;-83
2023/12/16 09:41:32;;;;;;;12.00;6.85;;;;;;;8.48;100.00;102362.38;12198202;19;20485;-84
2023/12/16 09:45:34;;;;;;;18.58;8.25;;;;;;;8.51;100.00;102356.56;12221496;19;20025;-85
2023/12/16 09:49:38;;;;;;;13.90;6.37;;;;;;;8.50;100.00;102352.06;12223286;19;20007;-84
2023/12/16 09:53:40;;;;;;;14.40;7.22;;;;;;;8.55;100.00;102342.28;12198460;19;20289;-82
2023/12/16 09:57:43;;;;;;;17.02;6.75;;;;;;;8.64;100.00;102334.88;12213995;19;20042;-82
2023/12/16 10:02:02;;;;;;;13.50;6.38;;;;;;;8.69;100.00;102340.72;12209996;19;20031;-82
2023/12/16 10:06:09;;;;;;;14.00;6.57;;;;;;;8.78;100.00;102325.06;12234634;19;20042;-83
2023/12/16 10:10:13;;;;;;;16.48;6.47;;;;;;;8.81;100.00;102322.81;12212973;19;20006;-83
2023/12/16 10:14:14;;;;;;;13.15;6.00;;;;;;;8.93;100.00;102326.03;12191947;19;20010;-82
2023/12/16 10:18:17;;;;;;;15.40;6.82;;;;;;;8.97;100.00;102329.28;12215290;19;20014;-81
2023/12/16 10:22:20;;;;;;;;;;;;;;;9.00;100.00;102332.53;12217031;19;20018;-81
2023/12/16 10:26:22;;;;;;;12.03;5.47;;;;;;;9.07;100.00;102332.66;12195293;19;19922;-82
2023/12/16 10:30:25;;;;;;;14.23;5.82;;;;;;;9.11;100.00;102326.63;12217828;19;20053;-82
2023/12/16 10:34:29;;;;;;;13.50;6.80;;;;;;;9.19;100.00;102333.13;12208799;19;20014;-81
2023/12/16 10:38:31;;;;;;;14.82;6.22;;;;;;;9.17;100.00;102336.06;12193574;19;20047;-81
2023/12/16 10:42:32;;;;;;;13.30;5.53;;;;;;;9.23;100.00;102334.50;12217482;19;20366;-81
2023/12/16 10:46:38;;;;;;;16.60;6.15;;;;;;;9.25;100.00;102332.41;12216373;19;20002;-82
2023/12/16 10:50:44;;;;;;;13.85;5.30;;;;;;;9.38;100.00;102327.19;12211753;19;19998;-82
2023/12/16 10:54:59;;;;;;;11.80;6.18;;;;;;;9.38;100.00;102327.19;12254480;19;20006;-83
2023/12/16 10:59:05;;;;;;;17.13;6.40;;;;;;;9.40;100.00;102322.38;12232063;19;20048;-83
2023/12/16 11:03:24;;;;;;;15.15;5.85;;;;;;;9.42;100.00;102331.28;12246448;19;19999;-82
2023/12/16 11:07:28;;;;;;;18.25;6.97;;;;;;;9.47;99.65;102328.84;12252098;19;20007;-83
2023/12/16 11:11:31;;;;;;;19.05;7.00;;;;;;;9.54;99.10;102334.50;12227207;19;20083;-83
2023/12/16 11:15:34;;;;;;;15.52;7.00;;;;;;;9.57;98.68;102326.72;12243066;19;20006;-83
2023/12/16 11:19:52;;;;;;;11.90;5.47;;;;;;;9.68;98.96;102324.59;12252413;19;20010;-83
2023/12/16 11:23:55;;;;;;;14.13;6.07;;;;;;;9.77;99.61;102332.63;12208498;19;20002;-82
2023/12/16 11:27:57;;;;;;;11.38;4.63;;;;;;;9.82;98.53;102332.06;12218861;19;20347;-82
2023/12/16 11:32:00;;;;;;;;;;;;;;;9.79;96.80;102322.28;12199437;19;20014;-83
2023/12/16 11:36:02;;;;;;;12.07;5.22;;;;;;;9.76;94.83;102311.63;12218011;19;19910;-82
2023/12/16 11:40:07;;;;;;;12.20;5.72;;;;;;;9.63;93.04;102305.00;12215601;19;20007;-83
2023/12/16 11:44:11;;;;;;;10.15;5.25;;;;;;;9.55;90.97;102304.03;12194325;19;20014;-81
2023/12/16 11:48:16;;;;;;;14.75;5.90;;;;;;;9.59;92.98;102291.63;12217130;19;20013;-83
2023/12/16 11:52:22;;;;;;;13.93;6.22;;;;;;;9.55;93.10;102282.03;12216481;19;20109;-82
2023/12/16 11:56:24;;;;;;;11.43;5.80;;;;;;;9.58;93.76;102283.56;12199043;19;20013;-82
2023/12/16 12:00:27;;;;;;;12.53;6.53;;;;;;;9.67;92.81;102281.59;12237046;19;20011;-82
2023/12/16 12:04:29;;;;;;;15.55;5.93;;;;;;;9.73;93.04;102281.72;12249777;19;20307;-82
2023/12/16 12:08:31;;;;;;;9.43;5.70;;;;;;;9.81;92.88;102267.91;12249231;19;20011;-81
2023/12/16 12:12:33;;;;;;;12.52;5.78;;;;;;;9.82;92.67;102254.97;12260807;19;20019;-82
2023/12/16 12:16:35;;;;;;;11.50;4.90;;;;;;;9.86;91.69;102252.69;12228434;19;20015;-80
2023/12/16 12:20:37;;;;;;;10.07;5.20;;;;;;;9.92;91.57;102246.44;12201038;19;20021;-83
2023/12/16 12:24:39;;;;;;;13.67;5.30;;;;;;;10.03;91.55;102237.75;12223518;19;20017;-81
2023/12/16 12:28:40;;;;;;;14.88;4.95;;;;;;;10.15;92.16;102227.13;12219876;19;20021;-81
2023/12/16 12:32:42;;;;;;;15.20;5.07;;;;;;;10.18;90.91;102232.25;12199651;19;20025;-82
2023/12/16 12:36:45;;;;;;;9.60;5.17;;;;;;;10.21;90.99;102226.38;12222175;19;20002;-82
2023/12/16 12:41:00;;;;;;;15.02;5.15;;;;;;;10.24;90.60;102215.81;12245069;19;20279;-84
2023/12/16 12:45:03;;;;;;;15.38;5.05;;;;;;;10.13;87.33;102213.50;12228424;19;20006;-83
2023/12/16 12:49:04;;;;;;;10.30;4.63;;;;;;;10.03;86.45;102207.44;12244996;19;20391;-81
2023/12/16 12:53:21;;;;;;;9.80;4.53;;;;;;;10.06;88.23;102206.22;12216514;19;20007;-81
2023/12/16 12:57:26;;;;;;;10.98;5.00;;;;;;;10.09;87.10;102195.66;12216439;19;20345;-82
2023/12/16 13:01:28;;;;;;;14.55;5.55;;;;;;;9.94;86.28;102186.53;12216782;19;20003;-82
2023/12/16 13:05:31;;;;;;;11.30;4.38;;;;;;;9.83;87.88;102179.56;12187721;19;20076;-81
2023/12/16 13:09:32;;;;;;;8.10;4.47;;;;;;;9.78;88.50;102160.00;12212983;19;20038;-82
2023/12/16 13:13:34;;;;;;;11.90;5.10;;;;;;;9.84;88.57;102156.50;12213460;19;20007;-82
2023/12/16 13:17:36;;;;;;;8.32;4.13;;;;;;;9.76;86.92;102157.44;12196064;19;20006;-81
2023/12/16 13:21:40;;;;;;;9.98;4.38;;;;;;;9.66;86.80;102153.22;12215316;19;20013;-81
2023/12/16 13:25:42;;;;;;;16.27;4.80;;;;;;;9.64;88.03;102144.28;12233558;19;20066;-81
2023/12/16 13:29:44;;;;;;;10.93;4.32;;;;;;;9.53;87.45;102140.97;12206389;19;20516;-82
2023/12/16 13:33:46;;;;;;;10.20;4.35;;;;;;;9.44;87.00;102136.56;12215954;19;20027;-82
2023/12/16 13:37:48;;;;;;;11.73;5.28;;;;;;;9.36;87.69;102134.75;12217044;19;20010;-81
2023/12/16 13:41:49;;;;;;;10.55;4.72;;;;;;;9.30;87.18;102134.63;12192188;19;20007;-81
2023/12/16 13:45:53;;;;;;;7.63;4.10;;;;;;;9.29;87.83;102143.94;12217575;19;20083;-81
2023/12/16 13:49:54;;;;;;;;;;;;;;;9.22;87.10;102142.94;12209779;19;20014;-80
2023/12/16 13:53:57;;;;;;;12.98;3.80;;;;;;;9.23;87.21;102128.16;12220284;19;19914;-82
2023/12/16 13:57:59;;;;;;;17.02;4.03;;;;;;;9.19;86.58;102122.19;12221759;19;20011;-81
2023/12/16 14:02:02;;;;;;;11.27;4.03;;;;;;;9.24;87.09;102127.13;12200788;19;20015;-82
2023/12/16 14:06:04;;;;;;;10.43;3.45;;;;;;;9.25;87.74;102121.44;12209481;19;20011;-82
2023/12/16 14:10:07;;;;;;;8.20;3.10;;;;;;;9.19;86.76;102132.31;12210425;19;20473;-81
2023/12/16 14:14:09;;;;;;;6.68;2.60;;;;;;;9.11;85.45;102134.09;12190105;19;20267;-81
2023/12/16 14:18:11;;;;;;;9.60;2.77;;;;;;;9.06;85.08;102135.69;12215659;19;20003;-82
2023/12/16 14:22:12;;;;;;;6.63;1.75;;;;;;;8.93;83.33;102130.78;12209173;19;20026;-81
2023/12/16 14:26:15;;;;;;;6.47;1.70;;;;;;;8.88;83.00;102133.22;12192552;19;20014;-81
2023/12/16 14:30:17;;;;;;;7.03;2.13;;;;;;;8.78;82.21;102133.47;12211380;19;20022;-81
2023/12/16 14:34:20;;;;;;;;;;;;;;;8.66;81.29;102143.16;12214560;19;20009;-82
2023/12/16 14:38:23;;;;;;;8.05;2.30;;;;;;;8.63;82.82;102138.88;12189043;19;19930;-82
2023/12/16 14:42:25;;;;;;;5.78;2.10;;;;;;;8.50;81.52;102138.59;12208932;19;20010;-81
2023/12/16 14:46:26;;;;;;;6.97;2.13;;;;;;;8.45;82.93;102146.53;12209663;19;20002;-82
2023/12/16 14:50:28;;;;;;;8.32;2.55;;;;;;;8.36;83.98;102140.19;12192409;19;20007;-83
2023/12/16 14:54:30;;;;;;;6.75;2.50;;;;;;;8.28;84.25;102144.84;12212581;19;20007;-81
2023/12/16 14:58:32;;;;;;;10.27;2.25;;;;;;;8.16;85.12;102144.38;12209997;19;20370;-82
2023/12/16 15:02:34;;;;;;;8.33;1.90;;;;;;;8.08;86.02;102141.66;12190404;19;20014;-82
2023/12/16 15:06:36;;;;;;;9.07;2.05;;;;;;;7.93;86.85;102131.41;12201538;19;20010;-81
2023/12/16 15:10:38;;;;;;;10.68;2.67;;;;;;;7.82;88.58;102123.53;12206483;19;20018;-81
2023/12/16 15:14:40;;;;;;;8.85;2.20;;;;;;;7.69;89.91;102113.09;12184602;19;20011;-82
2023/12/16 15:18:42;;;;;;;10.82;2.95;;;;;;;7.57;90.73;102119.13;12206039;19;20029;-80
2023/12/16 15:22:44;;;;;;;9.10;2.27;;;;;;;7.45;92.03;102116.75;12211249;19;20002;-82
2023/12/16 15:26:46;;;;;;;10.02;2.65;;;;;;;7.30;93.35;102113.00;12184315;19;20569;-80
2023/12/16 15:30:48;;;;;;;8.00;2.60;;;;;;;7.17;94.42;102113.50;12205953;19;20396;-81
2023/12/16 15:34:49;;;;;;;5.73;2.03;;;;;;;7.03;95.15;102112.28;12219909;19;20062;-80
2023/12/16 15:38:51;;;;;;;10.30;3.03;;;;;;;6.92;96.32;102120.00;12197982;19;20237;-81
2023/12/16 15:42:53;;;;;;;8.67;3.07;;;;;;;6.82;96.99;102103.72;12216557;19;20390;-80
2023/12/16 15:46:55;;;;;;;9.07;3.30;;;;;;;6.73;97.87;102108.31;12219919;19;20482;-81
2023/12/16 15:50:57;;;;;;;10.57;3.35;;;;;;;6.66;98.32;102096.31;12194796;19;20005;-81
2023/12/16 15:54:59;;;;;;;9.48;3.30;;;;;;;6.55;99.17;102107.59;12222823;19;21155;-81
2023/12/16 15:59:00;;;;;;;9.52;3.22;;;;;;;6.47;100.00;102108.41;12217601;19;20030;-80
2023/12/16 16:03:03;;;;;;;8.02;2.80;;;;;;;6.39;100.00;102106.53;12222216;19;20609;-81
2023/12/16 16:07:06;;;;;;;10.93;3.50;;;;;;;6.29;100.00;102096.72;12215730;19;20072;-82
2023/12/16 16:11:08;;;;;;;10.02;2.90;;;;;;;6.21;100.00;102099.44;12195970;19;20015;-81
2023/12/16 16:15:10;;;;;;;10.73;3.47;;;;;;;6.10;100.00;102104.19;12217576;19;20408;-81
2023/12/16 16:19:19;;;;;;;11.63;4.22;;;;;;;6.01;100.00;102093.34;12218426;19;20014;-81
2023/12/16 16:23:21;;;;;;;7.43;3.30;;;;;;;5.93;100.00;102106.00;12203548;19;20070;-81
2023/12/16 16:27:24;;;;;;;12.53;3.27;;;;;;;5.84;100.00;102106.94;12221722;19;20576;-81
2023/12/16 16:31:28;;;;;;;6.70;3.10;;;;;;;5.77;100.00;102115.94;12223743;19;20015;-81
2023/12/16 16:35:29;;;;;;;8.60;2.92;;;;;;;5.68;100.00;102113.19;12198585;19;20010;-81
2023/12/16 16:39:31;;;;;;;8.40;3.03;;;;;;;5.61;100.00;102120.28;12220281;19;20074;-81
2023/12/16 16:43:33;;;;;;;11.93;3.50;;;;;;;5.57;100.00;102112.59;12217489;19;20006;-81
2023/12/16 16:47:35;;;;;;;8.57;3.40;;;;;;;5.52;100.00;102125.88;12193508;19;20108;-82
2023/12/16 16:51:37;;;;;;;8.07;2.37;;;;;;;5.45;100.00;102123.78;12212682;19;20447;-80
2023/12/16 16:55:39;;;;;;;9.40;3.43;;;;;;;5.39;100.00;102126.31;12213894;19;20097;-81
2023/12/16 16:59:41;;;;;;;12.55;3.17;;;;;;;5.34;100.00;102126.78;12193564;19;20011;-81
2023/12/16 17:03:42;;;;;;;5.90;3.13;;;;;;;5.29;100.00;102126.38;12215867;19;20034;-81
2023/12/16 17:07:45;;;;;;;6.25;2.97;;;;;;;5.23;100.00;102124.28;12216445;19;20578;-81
2023/12/16 17:11:47;;;;;;;7.82;2.65;;;;;;;5.19;100.00;102129.22;12190010;19;20045;-81
2023/12/16 17:15:49;;;;;;;13.45;3.63;;;;;;;5.15;100.00;102121.50;12216803;19;20015;-81
2023/12/16 17:19:50;;;;;;;10.63;3.80;;;;;;;5.15;100.00;102114.16;12218229;19;20015;-81
2023/12/16 17:23:52;;;;;;;16.83;6.10;;;;;;;5.14;100.00;102112.41;12198233;19;20002;-81
2023/12/16 17:27:54;;;;;;;13.60;5.03;;;;;;;5.12;100.00;102121.81;12217700;19;20074;-80
2023/12/16 17:31:56;;;;;;;8.20;3.75;;;;;;;5.06;100.00;102120.56;12220179;19;20003;-80
2023/12/16 17:35:59;;;;;;;10.05;4.38;;;;;;;5.05;100.00;102107.91;12197800;19;20489;-80
2023/12/16 17:40:01;;;;;;;;;;;;;;;5.02;100.00;102116.41;12216688;19;20389;-80
2023/12/16 17:44:05;;;;;;;11.38;3.95;;;;;;;5.01;100.00;102117.44;12196194;19;19915;-81
2023/12/16 17:48:07;;;;;;;9.30;3.30;;;;;;;4.98;100.00;102106.81;12215759;19;20006;-81
2023/12/16 17:52:11;;;;;;;10.80;4.53;;;;;;;4.96;100.00;102106.13;12222237;19;20462;-83
2023/12/16 17:56:13;;;;;;;13.38;4.57;;;;;;;4.94;100.00;102106.28;12192020;19;20038;-83
2023/12/16 18:00:15;;;;;;;11.60;4.15;;;;;;;4.92;100.00;102102.84;12217998;19;19998;-83
2023/12/16 18:04:17;;;;;;;8.80;3.88;;;;;;;4.88;100.00;102111.50;12218473;19;20006;-82
2023/12/16 18:08:19;;;;;;;15.32;4.95;;;;;;;4.85;100.00;102109.97;12197041;19;20006;-83
2023/12/16 18:12:21;;;;;;;13.18;5.10;;;;;;;4.84;100.00;102123.75;12218553;19;20501;-82
2023/12/16 18:16:23;;;;;;;11.10;4.40;;;;;;;4.81;100.00;102114.00;12223964;19;20002;-82
2023/12/16 18:20:28;;;;;;;9.82;3.95;;;;;;;4.80;100.00;102125.94;12195122;19;20007;-82
2023/12/16 18:24:30;;;;;;;11.50;4.10;;;;;;;4.77;100.00;102134.47;12219203;19;20003;-82
2023/12/16 18:28:31;;;;;;;11.20;3.90;;;;;;;4.71;100.00;102137.81;12218969;19;20003;-81